sensor_id;sensor_type;location;lat;lon;timestamp;P1;durP1;ratioP1;P2;durP2;ratioP2
38783;SDS011;24531;45.502;12.238;2023-03-13T00:01:10;26.80;;;14.55;;
38783;SDS011;24531;45.502;12.238;2023-03-13T00:03:44;28.35;;;14.48;;
38783;SDS011;24531;45.502;12.238;2023-03-13T00:06:10;24.92;;;14.32;;
38783;SDS011;24531;45.502;12.238;2023-03-13T00:08:36;27.10;;;13.43;;
38783;SDS011;24531;45.502;12.238;2023-03-13T00:11:02;26.90;;;13.50;;
38783;SDS011;24531;45.502;12.238;2023-03-13T00:13:29;21.42;;;12.55;;
38783;SDS011;24531;45.502;12.238;2023-03-13T00:16:05;24.10;;;13.55;;
38783;SDS011;24531;45.502;12.238;2023-03-13T00:18:32;24.27;;;13.43;;
38783;SDS011;24531;45.502;12.238;2023-03-13T00:21:01;18.55;;;11.80;;
38783;SDS011;24531;45.502;12.238;2023-03-13T00:23:29;27.42;;;13.68;;
38783;SDS011;24531;45.502;12.238;2023-03-13T00:25:58;25.27;;;14.43;;
38783;SDS011;24531;45.502;12.238;2023-03-13T00:28:28;24.27;;;14.85;;
38783;SDS011;24531;45.502;12.238;2023-03-13T00:31:05;28.42;;;15.10;;
38783;SDS011;24531;45.502;12.238;2023-03-13T00:33:32;22.63;;;13.52;;
38783;SDS011;24531;45.502;12.238;2023-03-13T00:35:59;27.63;;;13.80;;
38783;SDS011;24531;45.502;12.238;2023-03-13T00:38:27;20.80;;;13.32;;
38783;SDS011;24531;45.502;12.238;2023-03-13T00:41:03;22.88;;;12.95;;
38783;SDS011;24531;45.502;12.238;2023-03-13T00:43:32;21.67;;;13.10;;
38783;SDS011;24531;45.502;12.238;2023-03-13T00:45:58;22.52;;;13.02;;
38783;SDS011;24531;45.502;12.238;2023-03-13T00:48:25;25.02;;;14.50;;
38783;SDS011;24531;45.502;12.238;2023-03-13T00:50:51;27.23;;;14.95;;
38783;SDS011;24531;45.502;12.238;2023-03-13T00:53:17;25.17;;;13.98;;
38783;SDS011;24531;45.502;12.238;2023-03-13T00:58:20;20.55;;;12.23;;
38783;SDS011;24531;45.502;12.238;2023-03-13T01:00:46;17.05;;;10.88;;
38783;SDS011;24531;45.502;12.238;2023-03-13T01:03:11;19.65;;;11.07;;
38783;SDS011;24531;45.502;12.238;2023-03-13T01:05:37;15.90;;;9.60;;
38783;SDS011;24531;45.502;12.238;2023-03-13T01:08:03;16.70;;;10.38;;
38783;SDS011;24531;45.502;12.238;2023-03-13T01:10:28;15.30;;;10.18;;
38783;SDS011;24531;45.502;12.238;2023-03-13T01:12:54;15.98;;;10.25;;
38783;SDS011;24531;45.502;12.238;2023-03-13T01:15:19;14.88;;;10.63;;
38783;SDS011;24531;45.502;12.238;2023-03-13T01:17:45;16.52;;;10.85;;
38783;SDS011;24531;45.502;12.238;2023-03-13T01:20:11;16.67;;;10.23;;
38783;SDS011;24531;45.502;12.238;2023-03-13T01:22:37;17.08;;;11.65;;
38783;SDS011;24531;45.502;12.238;2023-03-13T01:25:03;19.70;;;11.43;;
38783;SDS011;24531;45.502;12.238;2023-03-13T01:27:29;18.48;;;12.38;;
38783;SDS011;24531;45.502;12.238;2023-03-13T01:29:55;21.95;;;12.32;;
38783;SDS011;24531;45.502;12.238;2023-03-13T01:32:21;19.63;;;11.98;;
38783;SDS011;24531;45.502;12.238;2023-03-13T01:34:46;20.33;;;11.88;;
38783;SDS011;24531;45.502;12.238;2023-03-13T01:37:12;19.83;;;12.13;;
38783;SDS011;24531;45.502;12.238;2023-03-13T01:39:37;18.17;;;11.45;;
38783;SDS011;24531;45.502;12.238;2023-03-13T01:42:03;17.92;;;11.43;;
38783;SDS011;24531;45.502;12.238;2023-03-13T01:44:29;17.15;;;11.52;;
38783;SDS011;24531;45.502;12.238;2023-03-13T01:47:20;18.17;;;10.98;;
38783;SDS011;24531;45.502;12.238;2023-03-13T01:49:46;18.05;;;10.38;;
38783;SDS011;24531;45.502;12.238;2023-03-13T01:52:17;21.27;;;11.68;;
38783;SDS011;24531;45.502;12.238;2023-03-13T01:59:48;16.45;;;10.25;;
38783;SDS011;24531;45.502;12.238;2023-03-13T02:02:23;18.90;;;11.98;;
38783;SDS011;24531;45.502;12.238;2023-03-13T02:04:50;19.35;;;12.73;;
38783;SDS011;24531;45.502;12.238;2023-03-13T02:07:20;16.33;;;11.57;;
38783;SDS011;24531;45.502;12.238;2023-03-13T02:09:51;14.13;;;10.73;;
38783;SDS011;24531;45.502;12.238;2023-03-13T02:12:28;18.77;;;11.43;;
38783;SDS011;24531;45.502;12.238;2023-03-13T02:14:56;21.15;;;11.70;;
38783;SDS011;24531;45.502;12.238;2023-03-13T02:17:24;18.27;;;11.75;;
38783;SDS011;24531;45.502;12.238;2023-03-13T02:19:51;20.55;;;11.38;;
38783;SDS011;24531;45.502;12.238;2023-03-13T02:23:02;16.48;;;12.07;;
38783;SDS011;24531;45.502;12.238;2023-03-13T02:27:49;15.60;;;12.38;;
38783;SDS011;24531;45.502;12.238;2023-03-13T02:30:15;20.33;;;13.90;;
38783;SDS011;24531;45.502;12.238;2023-03-13T02:32:41;21.90;;;14.05;;
38783;SDS011;24531;45.502;12.238;2023-03-13T02:35:09;22.50;;;13.15;;
38783;SDS011;24531;45.502;12.238;2023-03-13T02:37:37;19.23;;;13.38;;
38783;SDS011;24531;45.502;12.238;2023-03-13T02:40:07;19.48;;;13.65;;
38783;SDS011;24531;45.502;12.238;2023-03-13T02:42:35;24.00;;;13.25;;
38783;SDS011;24531;45.502;12.238;2023-03-13T02:45:04;19.75;;;13.23;;
38783;SDS011;24531;45.502;12.238;2023-03-13T02:47:31;20.02;;;13.57;;
38783;SDS011;24531;45.502;12.238;2023-03-13T02:49:56;18.90;;;12.88;;
38783;SDS011;24531;45.502;12.238;2023-03-13T02:52:22;19.17;;;13.15;;
38783;SDS011;24531;45.502;12.238;2023-03-13T02:54:54;25.02;;;13.23;;
38783;SDS011;24531;45.502;12.238;2023-03-13T02:57:31;18.48;;;13.05;;
38783;SDS011;24531;45.502;12.238;2023-03-13T02:59:59;19.75;;;12.95;;
38783;SDS011;24531;45.502;12.238;2023-03-13T03:02:25;21.90;;;14.18;;
38783;SDS011;24531;45.502;12.238;2023-03-13T03:04:50;21.75;;;14.00;;
38783;SDS011;24531;45.502;12.238;2023-03-13T03:07:16;22.02;;;14.40;;
38783;SDS011;24531;45.502;12.238;2023-03-13T03:09:41;17.90;;;13.57;;
38783;SDS011;24531;45.502;12.238;2023-03-13T03:12:07;17.33;;;13.90;;
38783;SDS011;24531;45.502;12.238;2023-03-13T03:14:33;24.08;;;14.27;;
38783;SDS011;24531;45.502;12.238;2023-03-13T03:16:59;24.90;;;15.32;;
38783;SDS011;24531;45.502;12.238;2023-03-13T03:19:25;22.27;;;14.95;;
38783;SDS011;24531;45.502;12.238;2023-03-13T03:21:50;21.02;;;13.93;;
38783;SDS011;24531;45.502;12.238;2023-03-13T03:24:16;21.17;;;14.60;;
38783;SDS011;24531;45.502;12.238;2023-03-13T03:26:41;23.92;;;14.23;;
38783;SDS011;24531;45.502;12.238;2023-03-13T03:29:07;20.08;;;15.05;;
38783;SDS011;24531;45.502;12.238;2023-03-13T03:31:33;20.42;;;13.70;;
38783;SDS011;24531;45.502;12.238;2023-03-13T03:33:58;22.27;;;14.13;;
38783;SDS011;24531;45.502;12.238;2023-03-13T03:36:24;20.52;;;14.77;;
38783;SDS011;24531;45.502;12.238;2023-03-13T03:38:50;17.45;;;13.82;;
38783;SDS011;24531;45.502;12.238;2023-03-13T03:41:16;20.08;;;14.63;;
38783;SDS011;24531;45.502;12.238;2023-03-13T03:43:43;22.40;;;15.35;;
38783;SDS011;24531;45.502;12.238;2023-03-13T03:46:09;20.08;;;14.90;;
38783;SDS011;24531;45.502;12.238;2023-03-13T03:48:35;21.70;;;14.95;;
38783;SDS011;24531;45.502;12.238;2023-03-13T03:51:01;20.30;;;14.40;;
38783;SDS011;24531;45.502;12.238;2023-03-13T03:53:27;23.15;;;14.68;;
38783;SDS011;24531;45.502;12.238;2023-03-13T03:55:53;16.67;;;12.52;;
38783;SDS011;24531;45.502;12.238;2023-03-13T03:58:18;21.83;;;12.82;;
38783;SDS011;24531;45.502;12.238;2023-03-13T04:00:45;18.52;;;13.52;;
38783;SDS011;24531;45.502;12.238;2023-03-13T04:03:11;17.58;;;13.07;;
38783;SDS011;24531;45.502;12.238;2023-03-13T04:05:37;18.60;;;12.85;;
38783;SDS011;24531;45.502;12.238;2023-03-13T04:08:03;22.63;;;14.80;;
38783;SDS011;24531;45.502;12.238;2023-03-13T04:10:29;19.95;;;13.63;;
38783;SDS011;24531;45.502;12.238;2023-03-13T04:12:54;21.42;;;13.48;;
38783;SDS011;24531;45.502;12.238;2023-03-13T04:15:20;22.15;;;14.10;;
38783;SDS011;24531;45.502;12.238;2023-03-13T04:17:46;19.17;;;14.13;;
38783;SDS011;24531;45.502;12.238;2023-03-13T04:20:11;20.40;;;12.05;;
38783;SDS011;24531;45.502;12.238;2023-03-13T04:22:38;20.90;;;12.88;;
38783;SDS011;24531;45.502;12.238;2023-03-13T04:25:04;19.33;;;12.23;;
38783;SDS011;24531;45.502;12.238;2023-03-13T04:27:31;19.48;;;12.50;;
38783;SDS011;24531;45.502;12.238;2023-03-13T04:29:57;19.33;;;13.25;;
38783;SDS011;24531;45.502;12.238;2023-03-13T04:32:23;21.73;;;13.55;;
38783;SDS011;24531;45.502;12.238;2023-03-13T04:34:48;23.95;;;12.88;;
38783;SDS011;24531;45.502;12.238;2023-03-13T04:37:14;19.35;;;12.63;;
38783;SDS011;24531;45.502;12.238;2023-03-13T04:39:40;19.80;;;13.15;;
38783;SDS011;24531;45.502;12.238;2023-03-13T04:42:06;16.10;;;12.27;;
38783;SDS011;24531;45.502;12.238;2023-03-13T04:44:33;18.23;;;12.55;;
38783;SDS011;24531;45.502;12.238;2023-03-13T04:46:58;15.23;;;12.05;;
38783;SDS011;24531;45.502;12.238;2023-03-13T04:49:24;16.00;;;12.27;;
38783;SDS011;24531;45.502;12.238;2023-03-13T04:51:50;19.83;;;13.45;;
38783;SDS011;24531;45.502;12.238;2023-03-13T04:54:15;17.05;;;11.60;;
38783;SDS011;24531;45.502;12.238;2023-03-13T04:56:41;15.40;;;11.40;;
38783;SDS011;24531;45.502;12.238;2023-03-13T04:59:06;14.57;;;11.73;;
38783;SDS011;24531;45.502;12.238;2023-03-13T05:01:32;18.33;;;11.70;;
38783;SDS011;24531;45.502;12.238;2023-03-13T05:03:58;19.23;;;12.38;;
38783;SDS011;24531;45.502;12.238;2023-03-13T05:06:24;18.17;;;12.15;;
38783;SDS011;24531;45.502;12.238;2023-03-13T05:08:49;17.92;;;11.55;;
38783;SDS011;24531;45.502;12.238;2023-03-13T05:11:15;16.23;;;12.10;;
38783;SDS011;24531;45.502;12.238;2023-03-13T05:13:40;18.20;;;12.32;;
38783;SDS011;24531;45.502;12.238;2023-03-13T05:16:06;19.23;;;12.57;;
38783;SDS011;24531;45.502;12.238;2023-03-13T05:18:32;17.48;;;11.65;;
38783;SDS011;24531;45.502;12.238;2023-03-13T05:20:58;19.40;;;12.38;;
38783;SDS011;24531;45.502;12.238;2023-03-13T05:23:24;25.50;;;12.15;;
38783;SDS011;24531;45.502;12.238;2023-03-13T05:25:49;16.67;;;11.45;;
38783;SDS011;24531;45.502;12.238;2023-03-13T05:28:15;16.92;;;11.68;;
38783;SDS011;24531;45.502;12.238;2023-03-13T05:30:40;14.00;;;11.88;;
38783;SDS011;24531;45.502;12.238;2023-03-13T05:33:06;17.63;;;12.15;;
38783;SDS011;24531;45.502;12.238;2023-03-13T05:35:31;18.20;;;13.30;;
38783;SDS011;24531;45.502;12.238;2023-03-13T05:37:57;17.70;;;12.18;;
38783;SDS011;24531;45.502;12.238;2023-03-13T05:40:23;16.83;;;12.05;;
38783;SDS011;24531;45.502;12.238;2023-03-13T05:42:48;19.73;;;13.00;;
38783;SDS011;24531;45.502;12.238;2023-03-13T05:45:14;15.25;;;11.95;;
38783;SDS011;24531;45.502;12.238;2023-03-13T05:47:40;19.05;;;12.73;;
38783;SDS011;24531;45.502;12.238;2023-03-13T05:50:06;18.52;;;12.43;;
38783;SDS011;24531;45.502;12.238;2023-03-13T05:52:32;17.83;;;12.48;;
38783;SDS011;24531;45.502;12.238;2023-03-13T05:54:58;18.95;;;12.90;;
38783;SDS011;24531;45.502;12.238;2023-03-13T05:57:24;18.60;;;12.68;;
38783;SDS011;24531;45.502;12.238;2023-03-13T05:59:49;16.67;;;12.35;;
38783;SDS011;24531;45.502;12.238;2023-03-13T06:02:15;15.57;;;11.85;;
38783;SDS011;24531;45.502;12.238;2023-03-13T06:04:41;15.88;;;13.07;;
38783;SDS011;24531;45.502;12.238;2023-03-13T06:07:07;16.10;;;12.77;;
38783;SDS011;24531;45.502;12.238;2023-03-13T06:09:32;20.63;;;13.38;;
38783;SDS011;24531;45.502;12.238;2023-03-13T06:11:58;21.48;;;13.27;;
38783;SDS011;24531;45.502;12.238;2023-03-13T06:14:23;19.73;;;12.77;;
38783;SDS011;24531;45.502;12.238;2023-03-13T06:16:49;23.10;;;13.02;;
38783;SDS011;24531;45.502;12.238;2023-03-13T06:19:15;16.02;;;12.90;;
38783;SDS011;24531;45.502;12.238;2023-03-13T06:21:40;21.08;;;12.77;;
38783;SDS011;24531;45.502;12.238;2023-03-13T06:24:06;20.83;;;12.90;;
38783;SDS011;24531;45.502;12.238;2023-03-13T06:26:32;16.05;;;13.38;;
38783;SDS011;24531;45.502;12.238;2023-03-13T06:28:57;23.02;;;14.70;;
38783;SDS011;24531;45.502;12.238;2023-03-13T06:31:23;18.85;;;12.88;;
38783;SDS011;24531;45.502;12.238;2023-03-13T06:33:52;17.33;;;11.95;;
38783;SDS011;24531;45.502;12.238;2023-03-13T06:36:18;17.60;;;13.38;;
38783;SDS011;24531;45.502;12.238;2023-03-13T06:38:45;18.48;;;13.70;;
38783;SDS011;24531;45.502;12.238;2023-03-13T06:41:10;22.42;;;14.18;;
38783;SDS011;24531;45.502;12.238;2023-03-13T06:43:36;19.75;;;14.32;;
38783;SDS011;24531;45.502;12.238;2023-03-13T06:46:04;22.52;;;14.63;;
38783;SDS011;24531;45.502;12.238;2023-03-13T06:48:31;19.35;;;14.35;;
38783;SDS011;24531;45.502;12.238;2023-03-13T06:50:57;18.25;;;13.35;;
38783;SDS011;24531;45.502;12.238;2023-03-13T06:53:22;20.00;;;14.27;;
38783;SDS011;24531;45.502;12.238;2023-03-13T06:55:48;21.08;;;13.75;;
38783;SDS011;24531;45.502;12.238;2023-03-13T06:58:14;16.50;;;12.80;;
38783;SDS011;24531;45.502;12.238;2023-03-13T07:00:41;18.80;;;13.55;;
38783;SDS011;24531;45.502;12.238;2023-03-13T07:03:08;17.63;;;12.55;;
38783;SDS011;24531;45.502;12.238;2023-03-13T07:05:34;17.75;;;13.00;;
38783;SDS011;24531;45.502;12.238;2023-03-13T07:08:00;17.17;;;13.70;;
38783;SDS011;24531;45.502;12.238;2023-03-13T07:10:26;19.10;;;12.27;;
38783;SDS011;24531;45.502;12.238;2023-03-13T07:12:52;20.20;;;11.63;;
38783;SDS011;24531;45.502;12.238;2023-03-13T07:15:17;18.58;;;12.80;;
38783;SDS011;24531;45.502;12.238;2023-03-13T07:17:43;13.38;;;10.73;;
38783;SDS011;24531;45.502;12.238;2023-03-13T07:20:08;18.42;;;12.32;;
38783;SDS011;24531;45.502;12.238;2023-03-13T07:22:35;17.88;;;10.68;;
38783;SDS011;24531;45.502;12.238;2023-03-13T07:25:01;16.80;;;12.05;;
38783;SDS011;24531;45.502;12.238;2023-03-13T07:27:28;12.45;;;10.65;;
38783;SDS011;24531;45.502;12.238;2023-03-13T07:29:54;15.15;;;10.88;;
38783;SDS011;24531;45.502;12.238;2023-03-13T07:32:20;13.32;;;10.60;;
38783;SDS011;24531;45.502;12.238;2023-03-13T07:34:46;15.68;;;10.82;;
38783;SDS011;24531;45.502;12.238;2023-03-13T07:37:12;14.65;;;10.75;;
38783;SDS011;24531;45.502;12.238;2023-03-13T07:39:38;14.65;;;10.60;;
38783;SDS011;24531;45.502;12.238;2023-03-13T07:42:04;13.55;;;9.73;;
38783;SDS011;24531;45.502;12.238;2023-03-13T07:44:30;13.60;;;10.20;;
38783;SDS011;24531;45.502;12.238;2023-03-13T07:46:58;12.60;;;9.48;;
38783;SDS011;24531;45.502;12.238;2023-03-13T07:49:24;12.20;;;9.60;;
38783;SDS011;24531;45.502;12.238;2023-03-13T07:51:50;13.18;;;9.90;;
38783;SDS011;24531;45.502;12.238;2023-03-13T07:54:16;15.98;;;11.15;;
38783;SDS011;24531;45.502;12.238;2023-03-13T07:56:41;15.80;;;10.55;;
38783;SDS011;24531;45.502;12.238;2023-03-13T07:59:07;14.27;;;10.02;;
38783;SDS011;24531;45.502;12.238;2023-03-13T08:01:33;19.25;;;10.55;;
38783;SDS011;24531;45.502;12.238;2023-03-13T08:03:59;12.63;;;9.52;;
38783;SDS011;24531;45.502;12.238;2023-03-13T08:06:31;12.57;;;9.73;;
38783;SDS011;24531;45.502;12.238;2023-03-13T08:08:59;12.43;;;10.38;;
38783;SDS011;24531;45.502;12.238;2023-03-13T08:11:26;16.15;;;10.50;;
38783;SDS011;24531;45.502;12.238;2023-03-13T08:13:53;15.15;;;9.73;;
38783;SDS011;24531;45.502;12.238;2023-03-13T08:16:20;14.95;;;9.57;;
38783;SDS011;24531;45.502;12.238;2023-03-13T08:18:48;12.52;;;8.55;;
38783;SDS011;24531;45.502;12.238;2023-03-13T08:21:17;15.20;;;8.57;;
38783;SDS011;24531;45.502;12.238;2023-03-13T08:23:53;12.48;;;8.07;;
38783;SDS011;24531;45.502;12.238;2023-03-13T08:26:21;13.20;;;8.25;;
38783;SDS011;24531;45.502;12.238;2023-03-13T08:28:52;9.20;;;7.57;;
38783;SDS011;24531;45.502;12.238;2023-03-13T08:31:21;10.05;;;7.68;;
38783;SDS011;24531;45.502;12.238;2023-03-13T08:33:52;11.80;;;6.60;;
38783;SDS011;24531;45.502;12.238;2023-03-13T08:36:22;8.20;;;7.05;;
38783;SDS011;24531;45.502;12.238;2023-03-13T08:38:50;9.90;;;7.03;;
38783;SDS011;24531;45.502;12.238;2023-03-13T08:41:18;8.90;;;6.43;;
38783;SDS011;24531;45.502;12.238;2023-03-13T08:43:46;10.60;;;6.05;;
38783;SDS011;24531;45.502;12.238;2023-03-13T08:46:12;9.73;;;7.10;;
38783;SDS011;24531;45.502;12.238;2023-03-13T08:48:39;11.48;;;6.05;;
38783;SDS011;24531;45.502;12.238;2023-03-13T08:53:32;9.27;;;5.15;;
38783;SDS011;24531;45.502;12.238;2023-03-13T08:55:59;5.88;;;4.45;;
38783;SDS011;24531;45.502;12.238;2023-03-13T08:58:25;5.50;;;3.92;;
38783;SDS011;24531;45.502;12.238;2023-03-13T09:00:51;5.68;;;3.67;;
38783;SDS011;24531;45.502;12.238;2023-03-13T09:03:17;6.63;;;3.67;;
38783;SDS011;24531;45.502;12.238;2023-03-13T09:05:42;5.10;;;3.33;;
38783;SDS011;24531;45.502;12.238;2023-03-13T09:08:10;4.38;;;3.00;;
38783;SDS011;24531;45.502;12.238;2023-03-13T09:10:36;8.38;;;3.88;;
38783;SDS011;24531;45.502;12.238;2023-03-13T09:13:01;6.03;;;3.10;;
38783;SDS011;24531;45.502;12.238;2023-03-13T09:15:27;12.93;;;3.53;;
38783;SDS011;24531;45.502;12.238;2023-03-13T09:17:53;4.88;;;2.50;;
38783;SDS011;24531;45.502;12.238;2023-03-13T09:20:19;6.35;;;3.42;;
38783;SDS011;24531;45.502;12.238;2023-03-13T09:22:44;3.65;;;2.90;;
38783;SDS011;24531;45.502;12.238;2023-03-13T09:25:10;5.35;;;3.60;;
38783;SDS011;24531;45.502;12.238;2023-03-13T09:27:37;6.20;;;3.10;;
38783;SDS011;24531;45.502;12.238;2023-03-13T09:30:03;6.03;;;3.70;;
38783;SDS011;24531;45.502;12.238;2023-03-13T09:32:29;5.72;;;2.95;;
38783;SDS011;24531;45.502;12.238;2023-03-13T09:34:54;4.50;;;2.55;;
38783;SDS011;24531;45.502;12.238;2023-03-13T09:37:20;3.67;;;2.70;;
38783;SDS011;24531;45.502;12.238;2023-03-13T09:39:47;5.40;;;3.05;;
38783;SDS011;24531;45.502;12.238;2023-03-13T09:45:02;6.97;;;3.28;;
38783;SDS011;24531;45.502;12.238;2023-03-13T09:50:12;5.82;;;3.05;;
38783;SDS011;24531;45.502;12.238;2023-03-13T09:52:42;5.95;;;3.42;;
38783;SDS011;24531;45.502;12.238;2023-03-13T09:55:21;4.57;;;3.10;;
38783;SDS011;24531;45.502;12.238;2023-03-13T09:57:54;7.05;;;2.95;;
38783;SDS011;24531;45.502;12.238;2023-03-13T10:00:30;5.72;;;2.35;;
38783;SDS011;24531;45.502;12.238;2023-03-13T10:05:56;3.22;;;2.33;;
38783;SDS011;24531;45.502;12.238;2023-03-13T10:08:26;4.15;;;2.53;;
38783;SDS011;24531;45.502;12.238;2023-03-13T10:16:21;3.28;;;2.80;;
38783;SDS011;24531;45.502;12.238;2023-03-13T10:18:58;8.48;;;2.80;;
38783;SDS011;24531;45.502;12.238;2023-03-13T10:21:32;4.68;;;3.15;;
38783;SDS011;24531;45.502;12.238;2023-03-13T10:24:02;4.35;;;3.00;;
38783;SDS011;24531;45.502;12.238;2023-03-13T10:26:31;4.65;;;2.67;;
38783;SDS011;24531;45.502;12.238;2023-03-13T10:29:00;5.68;;;2.72;;
38783;SDS011;24531;45.502;12.238;2023-03-13T10:31:40;5.10;;;3.03;;
38783;SDS011;24531;45.502;12.238;2023-03-13T10:34:12;3.97;;;2.38;;
38783;SDS011;24531;45.502;12.238;2023-03-13T10:36:44;5.82;;;3.10;;
38783;SDS011;24531;45.502;12.238;2023-03-13T10:39:16;3.97;;;2.90;;
38783;SDS011;24531;45.502;12.238;2023-03-13T10:41:43;4.90;;;2.50;;
38783;SDS011;24531;45.502;12.238;2023-03-13T10:44:14;4.47;;;3.15;;
38783;SDS011;24531;45.502;12.238;2023-03-13T10:46:45;5.10;;;2.80;;
38783;SDS011;24531;45.502;12.238;2023-03-13T10:49:22;3.75;;;2.75;;
38783;SDS011;24531;45.502;12.238;2023-03-13T10:51:52;5.47;;;2.83;;
38783;SDS011;24531;45.502;12.238;2023-03-13T10:54:29;8.98;;;2.67;;
38783;SDS011;24531;45.502;12.238;2023-03-13T10:59:43;3.15;;;2.22;;
38783;SDS011;24531;45.502;12.238;2023-03-13T11:07:54;4.72;;;2.50;;
38783;SDS011;24531;45.502;12.238;2023-03-13T11:10:28;5.50;;;3.00;;
38783;SDS011;24531;45.502;12.238;2023-03-13T11:12:55;2.80;;;1.60;;
38783;SDS011;24531;45.502;12.238;2023-03-13T11:20:40;5.85;;;2.92;;
38783;SDS011;24531;45.502;12.238;2023-03-13T11:31:18;7.60;;;3.13;;
38783;SDS011;24531;45.502;12.238;2023-03-13T11:36:39;3.28;;;2.20;;
38783;SDS011;24531;45.502;12.238;2023-03-13T11:42:36;4.22;;;1.83;;
38783;SDS011;24531;45.502;12.238;2023-03-13T11:50:35;3.92;;;0.98;;
38783;SDS011;24531;45.502;12.238;2023-03-13T12:03:41;2.88;;;1.08;;
38783;SDS011;24531;45.502;12.238;2023-03-13T12:06:31;3.42;;;0.88;;
38783;SDS011;24531;45.502;12.238;2023-03-13T12:11:32;3.20;;;1.15;;
38783;SDS011;24531;45.502;12.238;2023-03-13T12:14:17;5.57;;;1.40;;
38783;SDS011;24531;45.502;12.238;2023-03-13T12:16:56;3.25;;;1.40;;
38783;SDS011;24531;45.502;12.238;2023-03-13T12:19:47;3.47;;;1.27;;
38783;SDS011;24531;45.502;12.238;2023-03-13T12:22:22;3.03;;;1.25;;
38783;SDS011;24531;45.502;12.238;2023-03-13T12:24:59;2.55;;;1.20;;
38783;SDS011;24531;45.502;12.238;2023-03-13T12:27:44;6.10;;;2.25;;
38783;SDS011;24531;45.502;12.238;2023-03-13T12:32:58;2.95;;;1.73;;
38783;SDS011;24531;45.502;12.238;2023-03-13T12:35:34;5.05;;;1.80;;
38783;SDS011;24531;45.502;12.238;2023-03-13T12:43:46;6.20;;;2.30;;
38783;SDS011;24531;45.502;12.238;2023-03-13T12:48:59;3.67;;;2.67;;
38783;SDS011;24531;45.502;12.238;2023-03-13T12:51:40;5.65;;;3.15;;
38783;SDS011;24531;45.502;12.238;2023-03-13T12:56:52;6.43;;;3.30;;
38783;SDS011;24531;45.502;12.238;2023-03-13T13:01:54;4.82;;;3.08;;
38783;SDS011;24531;45.502;12.238;2023-03-13T13:04:25;7.82;;;2.45;;
38783;SDS011;24531;45.502;12.238;2023-03-13T13:07:02;4.97;;;2.97;;
38783;SDS011;24531;45.502;12.238;2023-03-13T13:09:30;4.22;;;2.20;;
38783;SDS011;24531;45.502;12.238;2023-03-13T13:17:23;2.97;;;1.40;;
38783;SDS011;24531;45.502;12.238;2023-03-13T13:19:54;2.40;;;0.88;;
38783;SDS011;24531;45.502;12.238;2023-03-13T13:25:01;2.78;;;0.90;;
38783;SDS011;24531;45.502;12.238;2023-03-13T13:27:55;0.93;;;0.70;;
38783;SDS011;24531;45.502;12.238;2023-03-13T13:30:34;2.80;;;1.00;;
38783;SDS011;24531;45.502;12.238;2023-03-13T13:36:24;3.10;;;1.33;;
38783;SDS011;24531;45.502;12.238;2023-03-13T13:38:47;1.90;;;0.90;;
38783;SDS011;24531;45.502;12.238;2023-03-13T13:43:39;0.88;;;0.80;;
38783;SDS011;24531;45.502;12.238;2023-03-13T13:48:37;2.90;;;0.77;;
38783;SDS011;24531;45.502;12.238;2023-03-13T13:53:57;2.38;;;0.60;;
38783;SDS011;24531;45.502;12.238;2023-03-13T13:56:35;1.60;;;0.80;;
38783;SDS011;24531;45.502;12.238;2023-03-13T14:01:46;1.20;;;0.70;;
38783;SDS011;24531;45.502;12.238;2023-03-13T14:04:27;1.83;;;0.52;;
38783;SDS011;24531;45.502;12.238;2023-03-13T14:07:03;0.75;;;0.52;;
38783;SDS011;24531;45.502;12.238;2023-03-13T14:12:28;2.75;;;0.98;;
38783;SDS011;24531;45.502;12.238;2023-03-13T14:17:47;1.98;;;0.95;;
38783;SDS011;24531;45.502;12.238;2023-03-13T14:20:21;2.15;;;0.70;;
38783;SDS011;24531;45.502;12.238;2023-03-13T14:22:59;1.48;;;0.65;;
38783;SDS011;24531;45.502;12.238;2023-03-13T14:25:27;1.65;;;0.80;;
38783;SDS011;24531;45.502;12.238;2023-03-13T14:28:19;3.03;;;1.00;;
38783;SDS011;24531;45.502;12.238;2023-03-13T14:30:51;5.50;;;1.30;;
38783;SDS011;24531;45.502;12.238;2023-03-13T14:33:19;3.55;;;1.48;;
38783;SDS011;24531;45.502;12.238;2023-03-13T14:35:45;1.95;;;0.95;;
38783;SDS011;24531;45.502;12.238;2023-03-13T14:38:15;5.22;;;1.35;;
38783;SDS011;24531;45.502;12.238;2023-03-13T14:40:44;2.83;;;1.08;;
38783;SDS011;24531;45.502;12.238;2023-03-13T14:43:30;1.75;;;0.95;;
38783;SDS011;24531;45.502;12.238;2023-03-13T14:46:00;2.92;;;1.10;;
38783;SDS011;24531;45.502;12.238;2023-03-13T14:49:04;3.38;;;0.93;;
38783;SDS011;24531;45.502;12.238;2023-03-13T14:51:31;2.70;;;1.00;;
38783;SDS011;24531;45.502;12.238;2023-03-13T14:54:01;5.35;;;1.50;;
38783;SDS011;24531;45.502;12.238;2023-03-13T14:56:34;2.10;;;1.00;;
38783;SDS011;24531;45.502;12.238;2023-03-13T14:59:13;3.10;;;0.93;;
38783;SDS011;24531;45.502;12.238;2023-03-13T15:01:41;6.18;;;1.23;;
38783;SDS011;24531;45.502;12.238;2023-03-13T15:04:07;3.42;;;1.10;;
38783;SDS011;24531;45.502;12.238;2023-03-13T15:06:33;3.22;;;0.90;;
38783;SDS011;24531;45.502;12.238;2023-03-13T15:09:18;5.07;;;1.00;;
38783;SDS011;24531;45.502;12.238;2023-03-13T15:11:56;2.13;;;1.10;;
38783;SDS011;24531;45.502;12.238;2023-03-13T15:14:30;3.17;;;1.10;;
38783;SDS011;24531;45.502;12.238;2023-03-13T15:17:01;2.03;;;1.10;;
38783;SDS011;24531;45.502;12.238;2023-03-13T15:19:28;3.88;;;1.27;;
38783;SDS011;24531;45.502;12.238;2023-03-13T15:21:57;2.67;;;1.08;;
38783;SDS011;24531;45.502;12.238;2023-03-13T15:24:22;3.30;;;1.13;;
38783;SDS011;24531;45.502;12.238;2023-03-13T15:26:48;2.30;;;1.27;;
38783;SDS011;24531;45.502;12.238;2023-03-13T15:29:14;2.72;;;1.13;;
38783;SDS011;24531;45.502;12.238;2023-03-13T15:31:42;5.88;;;1.60;;
38783;SDS011;24531;45.502;12.238;2023-03-13T15:34:11;5.57;;;1.83;;
38783;SDS011;24531;45.502;12.238;2023-03-13T15:36:38;5.80;;;1.67;;
38783;SDS011;24531;45.502;12.238;2023-03-13T15:39:14;3.88;;;1.63;;
38783;SDS011;24531;45.502;12.238;2023-03-13T15:41:43;5.00;;;1.92;;
38783;SDS011;24531;45.502;12.238;2023-03-13T15:44:08;5.35;;;1.73;;
38783;SDS011;24531;45.502;12.238;2023-03-13T15:46:34;3.50;;;1.75;;
38783;SDS011;24531;45.502;12.238;2023-03-13T15:49:00;4.55;;;2.30;;
38783;SDS011;24531;45.502;12.238;2023-03-13T15:51:25;7.38;;;1.88;;
38783;SDS011;24531;45.502;12.238;2023-03-13T15:53:51;5.15;;;2.22;;
38783;SDS011;24531;45.502;12.238;2023-03-13T15:56:18;5.13;;;1.90;;
38783;SDS011;24531;45.502;12.238;2023-03-13T15:58:46;5.30;;;1.63;;
38783;SDS011;24531;45.502;12.238;2023-03-13T16:01:13;6.32;;;1.90;;
38783;SDS011;24531;45.502;12.238;2023-03-13T16:03:40;3.50;;;1.65;;
38783;SDS011;24531;45.502;12.238;2023-03-13T16:06:16;6.75;;;2.17;;
38783;SDS011;24531;45.502;12.238;2023-03-13T16:08:45;4.55;;;1.73;;
38783;SDS011;24531;45.502;12.238;2023-03-13T16:11:12;5.13;;;1.63;;
38783;SDS011;24531;45.502;12.238;2023-03-13T16:13:41;2.80;;;1.67;;
38783;SDS011;24531;45.502;12.238;2023-03-13T16:16:16;4.10;;;1.80;;
38783;SDS011;24531;45.502;12.238;2023-03-13T16:18:50;4.05;;;2.38;;
38783;SDS011;24531;45.502;12.238;2023-03-13T16:21:21;2.50;;;1.40;;
38783;SDS011;24531;45.502;12.238;2023-03-13T16:23:52;7.07;;;1.77;;
38783;SDS011;24531;45.502;12.238;2023-03-13T16:26:19;3.88;;;1.40;;